Time;durP1;ratioP1;P1;durP2;ratioP2;P2;SDS_P1;SDS_P2;PMS_P1;PMS_P2;Temp;Humidity;BMP_temperature;BMP_pressure;BME280_temperature;BME280_humidity;BME280_pressure;Samples;Min_cycle;Max_cycle;Signal;HPM_P1;HPM_P2
2023/07/22 00:01:00;;;;;;;11.18;5.82;;;14.50;99.90;;;;;;5006250;28;20038;-63
2023/07/22 00:03:25;;;;;;;13.38;5.78;;;14.50;99.90;;;;;;5010192;28;20050;-64
2023/07/22 00:06:11;;;;;;;14.15;6.00;;;14.50;99.90;;;;;;4999650;28;20118;-63
2023/07/22 00:08:38;;;;;;;12.45;5.40;;;14.50;99.90;;;;;;5000183;28;20042;-64
2023/07/22 00:11:04;;;;;;;11.27;5.97;;;14.50;99.90;;;;;;5000415;28;20133;-63
2023/07/22 00:13:30;;;;;;;10.25;5.38;;;14.50;99.90;;;;;;5003107;28;20041;-63
2023/07/22 00:15:56;;;;;;;11.52;5.75;;;14.40;99.90;;;;;;5013026;28;20069;-64
2023/07/22 00:18:23;;;;;;;12.98;5.68;;;14.40;99.90;;;;;;5010132;28;20041;-64
2023/07/22 00:20:49;;;;;;;9.05;5.68;;;14.40;99.90;;;;;;5009006;28;20408;-63
2023/07/22 00:23:16;;;;;;;10.75;5.97;;;14.40;99.90;;;;;;5020540;28;20037;-63
2023/07/22 00:25:42;;;;;;;12.30;5.90;;;14.30;99.90;;;;;;5011748;28;20120;-63
2023/07/22 00:28:07;;;;;;;11.52;5.85;;;14.20;99.90;;;;;;5012407;28;20472;-64
2023/07/22 00:30:34;;;;;;;12.88;6.07;;;14.20;99.90;;;;;;5007393;28;20038;-64
2023/07/22 00:33:00;;;;;;;11.30;5.68;;;14.20;99.90;;;;;;5018795;28;20045;-63
2023/07/22 00:35:26;;;;;;;12.02;5.78;;;14.20;99.90;;;;;;5025934;28;20052;-63
2023/07/22 00:37:52;;;;;;;12.40;5.88;;;14.20;99.90;;;;;;5031421;28;20053;-63
2023/07/22 00:40:18;;;;;;;11.77;5.88;;;14.20;99.90;;;;;;5013991;28;20122;-63
2023/07/22 00:42:43;;;;;;;11.65;5.82;;;14.20;99.90;;;;;;5004155;28;20073;-63
2023/07/22 00:45:09;;;;;;;11.43;5.88;;;14.10;99.90;;;;;;5009582;28;20041;-63
2023/07/22 00:47:35;;;;;;;11.35;6.25;;;14.20;99.90;;;;;;5020698;28;20042;-64
2023/07/22 00:50:07;;;;;;;12.35;6.18;;;14.10;99.90;;;;;;5015905;28;20044;-64
2023/07/22 00:52:37;;;;;;;11.30;5.85;;;14.10;99.90;;;;;;5026183;28;20061;-63
2023/07/22 00:55:04;;;;;;;11.10;5.28;;;14.10;99.90;;;;;;5011655;28;20407;-64
2023/07/22 00:57:29;;;;;;;10.20;5.78;;;14.00;99.90;;;;;;5012000;28;20080;-63
2023/07/22 00:59:55;;;;;;;11.20;5.85;;;14.00;99.90;;;;;;5003949;28;20085;-63
2023/07/22 01:02:21;;;;;;;13.93;6.28;;;13.90;99.90;;;;;;5002034;28;20034;-63
2023/07/22 01:04:48;;;;;;;10.95;5.82;;;13.90;99.90;;;;;;5026132;28;20037;-63
2023/07/22 01:07:14;;;;;;;11.35;5.97;;;13.80;99.90;;;;;;5031895;28;20484;-63
2023/07/22 01:09:43;;;;;;;10.13;5.88;;;13.80;99.90;;;;;;5020231;28;20045;-64
2023/07/22 01:12:09;;;;;;;11.40;5.95;;;13.80;99.90;;;;;;5005575;28;20037;-64
2023/07/22 01:14:36;;;;;;;11.00;5.75;;;13.80;99.90;;;;;;5020503;28;20133;-64
2023/07/22 01:17:04;;;;;;;13.85;6.00;;;13.70;99.90;;;;;;5023080;28;20034;-63
2023/07/22 01:19:32;;;;;;;12.75;6.22;;;13.70;99.90;;;;;;5010883;28;20113;-63
2023/07/22 01:22:00;;;;;;;14.15;6.65;;;13.60;99.90;;;;;;5008143;28;20033;-63
2023/07/22 01:24:28;;;;;;;12.77;5.85;;;13.60;99.90;;;;;;5002513;28;20037;-64
2023/07/22 01:26:53;;;;;;;11.40;5.57;;;13.60;99.90;;;;;;5010515;28;20042;-63
2023/07/22 01:29:21;;;;;;;13.48;6.45;;;13.60;99.90;;;;;;5011600;28;20044;-63
2023/07/22 01:31:48;;;;;;;10.73;6.40;;;13.50;99.90;;;;;;5008161;28;20120;-63
2023/07/22 01:34:13;;;;;;;10.10;5.82;;;13.60;99.90;;;;;;5017308;28;20490;-64
2023/07/22 01:36:39;;;;;;;13.48;6.03;;;13.60;99.90;;;;;;5022109;28;20042;-63
2023/07/22 01:39:08;;;;;;;12.18;5.90;;;13.50;99.90;;;;;;5013503;28;20041;-63
2023/07/22 01:41:34;;;;;;;9.90;5.80;;;13.50;99.90;;;;;;5023581;28;20049;-63
2023/07/22 01:43:59;;;;;;;10.77;5.38;;;13.50;99.90;;;;;;5007548;28;20396;-63
2023/07/22 01:46:25;;;;;;;10.80;6.15;;;13.50;99.90;;;;;;5011798;28;20034;-63
2023/07/22 01:48:51;;;;;;;12.38;6.18;;;13.50;99.90;;;;;;5010263;28;20038;-63
2023/07/22 01:51:16;;;;;;;13.18;6.00;;;13.50;99.90;;;;;;5009632;28;20052;-63
2023/07/22 01:53:42;;;;;;;11.77;6.55;;;13.50;99.90;;;;;;5010016;28;20048;-63
2023/07/22 01:56:08;;;;;;;15.73;6.65;;;13.50;99.90;;;;;;5010913;28;20054;-63
2023/07/22 01:58:34;;;;;;;13.68;6.60;;;13.50;99.90;;;;;;5011094;28;20085;-63
2023/07/22 02:01:00;;;;;;;12.70;6.88;;;13.50;99.90;;;;;;5013549;28;20065;-63
2023/07/22 02:03:25;;;;;;;14.00;6.75;;;13.50;99.90;;;;;;5014166;28;20052;-64
2023/07/22 02:05:51;;;;;;;14.90;7.03;;;13.50;99.90;;;;;;4994411;28;20105;-64
2023/07/22 02:08:17;;;;;;;11.48;7.00;;;13.60;99.90;;;;;;5009273;28;20029;-64
2023/07/22 02:10:42;;;;;;;13.25;6.55;;;13.50;99.90;;;;;;5017515;28;20038;-63
2023/07/22 02:13:08;;;;;;;13.20;6.97;;;13.50;99.90;;;;;;5015185;28;20089;-63
2023/07/22 02:15:35;;;;;;;14.68;7.38;;;13.50;99.90;;;;;;5014013;28;20045;-63
2023/07/22 02:18:00;;;;;;;12.65;6.93;;;13.50;99.90;;;;;;5008240;28;20037;-64
2023/07/22 02:20:28;;;;;;;13.55;6.90;;;13.50;99.90;;;;;;5014820;28;20038;-63
2023/07/22 02:22:54;;;;;;;13.63;7.10;;;13.50;99.90;;;;;;5015232;28;20042;-64
2023/07/22 02:25:20;;;;;;;13.48;6.82;;;13.50;99.90;;;;;;5012992;28;20034;-63
2023/07/22 02:27:46;;;;;;;13.40;7.05;;;13.50;99.90;;;;;;5013521;28;20045;-63
2023/07/22 02:30:12;;;;;;;11.90;7.07;;;13.40;99.90;;;;;;5007728;28;20038;-63
2023/07/22 02:32:40;;;;;;;13.55;6.82;;;13.40;99.90;;;;;;5014455;28;20385;-63
2023/07/22 02:35:09;;;;;;;14.57;6.93;;;13.40;99.90;;;;;;5012682;28;20056;-63
2023/07/22 02:37:38;;;;;;;13.45;7.20;;;13.50;99.90;;;;;;5008608;28;20514;-63
2023/07/22 02:40:07;;;;;;;13.82;7.18;;;13.50;99.90;;;;;;5012463;28;20042;-63
2023/07/22 02:42:35;;;;;;;12.57;7.18;;;13.50;99.90;;;;;;5018271;28;20053;-63
2023/07/22 02:45:01;;;;;;;15.05;7.35;;;13.50;99.90;;;;;;5003027;28;20238;-63
2023/07/22 02:47:28;;;;;;;17.05;8.18;;;13.50;99.90;;;;;;5010369;28;20428;-63
2023/07/22 02:49:54;;;;;;;15.57;8.20;;;13.50;99.90;;;;;;5009944;28;20969;-63
2023/07/22 02:52:20;;;;;;;14.45;7.35;;;13.50;99.90;;;;;;4979337;28;20038;-63
2023/07/22 02:55:05;;;;;;;15.77;7.72;;;13.60;99.90;;;;;;5012697;28;20042;-63
2023/07/22 02:57:31;;;;;;;14.85;8.02;;;13.60;99.90;;;;;;5011403;28;20046;-64
2023/07/22 02:59:56;;;;;;;15.52;8.23;;;13.60;99.90;;;;;;5022262;28;20419;-63
2023/07/22 03:02:22;;;;;;;15.05;7.95;;;13.60;99.90;;;;;;5014077;28;20045;-63
2023/07/22 03:04:47;;;;;;;18.42;9.25;;;13.60;99.90;;;;;;5011567;28;20100;-63
2023/07/22 03:07:13;;;;;;;14.23;7.18;;;13.60;99.90;;;;;;5004694;28;20654;-63
2023/07/22 03:09:39;;;;;;;18.60;9.10;;;13.60;99.90;;;;;;5012035;28;20056;-63
2023/07/22 03:12:04;;;;;;;17.73;8.75;;;13.70;99.90;;;;;;5012916;28;20038;-63
2023/07/22 03:14:37;;;;;;;16.08;8.55;;;13.70;99.90;;;;;;5010769;28;20042;-63
2023/07/22 03:17:06;;;;;;;18.35;8.48;;;13.70;99.90;;;;;;5010273;28;20037;-63
2023/07/22 03:19:31;;;;;;;19.25;8.68;;;13.70;99.90;;;;;;5011748;28;20069;-63
2023/07/22 03:21:57;;;;;;;17.35;8.88;;;13.70;99.90;;;;;;5012630;28;20081;-63
2023/07/22 03:24:22;;;;;;;17.73;8.93;;;13.70;99.90;;;;;;5013197;28;20046;-63
2023/07/22 03:26:48;;;;;;;18.30;9.23;;;13.70;99.90;;;;;;5007474;28;20053;-63
2023/07/22 03:29:14;;;;;;;18.15;9.40;;;13.70;99.90;;;;;;5011319;28;20037;-63
2023/07/22 03:31:39;;;;;;;20.20;9.82;;;13.70;99.90;;;;;;5011856;28;20038;-63
2023/07/22 03:34:05;;;;;;;17.65;8.90;;;13.70;99.90;;;;;;5013084;28;20484;-63
2023/07/22 03:36:33;;;;;;;17.50;9.13;;;13.80;99.90;;;;;;5012474;28;20041;-63
2023/07/22 03:38:59;;;;;;;17.48;9.60;;;13.80;99.90;;;;;;5012233;28;20041;-63
2023/07/22 03:41:25;;;;;;;16.65;8.80;;;13.80;99.90;;;;;;5013568;28;20128;-63
2023/07/22 03:43:51;;;;;;;18.08;8.82;;;13.80;99.90;;;;;;5009719;28;20034;-63
2023/07/22 03:46:16;;;;;;;15.70;8.82;;;13.80;99.90;;;;;;4993583;28;20073;-63
2023/07/22 03:48:42;;;;;;;18.33;8.75;;;13.80;99.90;;;;;;5011949;28;20499;-63
2023/07/22 03:51:08;;;;;;;16.70;7.93;;;13.80;99.90;;;;;;5005222;28;20034;-63
2023/07/22 03:53:33;;;;;;;21.90;9.20;;;13.90;99.90;;;;;;5013178;28;20045;-63
2023/07/22 03:55:59;;;;;;;16.15;8.75;;;13.80;99.90;;;;;;5013125;28;20038;-63
2023/07/22 03:58:25;;;;;;;18.45;9.35;;;13.80;99.90;;;;;;5006877;28;20042;-64
2023/07/22 04:00:50;;;;;;;21.27;9.13;;;13.90;99.90;;;;;;4997933;28;20037;-63
2023/07/22 04:03:16;;;;;;;18.50;9.27;;;13.90;99.90;;;;;;5007300;28;20034;-63
2023/07/22 04:05:41;;;;;;;15.80;8.55;;;13.90;99.90;;;;;;5009966;28;20036;-64
2023/07/22 04:08:07;;;;;;;15.63;8.60;;;13.90;99.90;;;;;;5009518;28;20074;-64
2023/07/22 04:10:33;;;;;;;16.20;8.75;;;14.00;99.90;;;;;;5003007;28;20038;-64
2023/07/22 04:12:58;;;;;;;21.75;9.50;;;14.00;99.90;;;;;;4994385;28;20451;-63
2023/07/22 04:15:24;;;;;;;19.67;9.23;;;14.00;99.90;;;;;;4990702;28;20050;-63
2023/07/22 04:17:50;;;;;;;15.88;8.68;;;14.00;99.90;;;;;;5008220;28;20129;-64
2023/07/22 04:20:17;;;;;;;16.35;9.18;;;14.10;99.90;;;;;;5015881;28;20501;-63
2023/07/22 04:22:43;;;;;;;14.30;8.77;;;14.10;99.90;;;;;;5016918;28;20038;-64
2023/07/22 04:25:09;;;;;;;17.60;8.55;;;14.10;99.90;;;;;;5002401;28;20045;-64
2023/07/22 04:27:35;;;;;;;17.08;8.50;;;14.10;99.90;;;;;;5006805;28;20030;-63
2023/07/22 04:30:00;;;;;;;15.10;8.02;;;14.10;99.90;;;;;;5019820;28;20079;-64
2023/07/22 04:32:26;;;;;;;15.23;8.35;;;14.20;99.90;;;;;;5032020;28;20041;-64
2023/07/22 04:34:51;;;;;;;16.17;8.80;;;14.20;99.90;;;;;;5019835;28;20030;-64
2023/07/22 04:37:17;;;;;;;17.65;9.60;;;14.20;99.90;;;;;;5009963;28;20117;-63
2023/07/22 04:39:46;;;;;;;18.80;9.32;;;14.20;99.90;;;;;;5010398;28;20038;-64
2023/07/22 04:42:11;;;;;;;14.45;8.50;;;14.20;99.90;;;;;;5013069;28;20048;-63
2023/07/22 04:44:37;;;;;;;14.52;8.18;;;14.30;99.90;;;;;;5010953;28;20038;-63
2023/07/22 04:47:03;;;;;;;17.58;8.75;;;14.20;99.90;;;;;;5012902;28;20400;-63
2023/07/22 04:49:28;;;;;;;16.10;8.82;;;14.30;99.90;;;;;;5014460;28;20041;-63
2023/07/22 04:51:54;;;;;;;17.15;9.25;;;14.30;99.90;;;;;;5014286;28;20483;-64
2023/07/22 04:54:20;;;;;;;15.02;8.85;;;14.30;99.90;;;;;;4983953;28;20084;-64
2023/07/22 04:56:45;;;;;;;17.35;8.60;;;14.30;99.90;;;;;;4999972;28;20038;-64
2023/07/22 04:59:12;;;;;;;16.38;8.55;;;14.30;99.90;;;;;;5008791;28;20507;-63
2023/07/22 05:01:38;;;;;;;14.68;8.40;;;14.40;99.90;;;;;;5014809;28;20034;-63
2023/07/22 05:04:04;;;;;;;16.33;8.75;;;14.40;99.90;;;;;;5024372;28;20467;-63
2023/07/22 05:06:30;;;;;;;18.20;9.13;;;14.40;99.90;;;;;;5002479;28;20050;-63
2023/07/22 05:08:55;;;;;;;16.20;8.40;;;14.40;99.90;;;;;;5010776;28;20041;-63
2023/07/22 05:11:23;;;;;;;15.85;8.40;;;14.40;99.90;;;;;;5012377;28;20033;-64
2023/07/22 05:13:48;;;;;;;15.68;8.40;;;14.40;99.90;;;;;;5031139;22;20053;-70
2023/07/22 05:16:14;;;;;;;14.82;8.38;;;14.40;99.90;;;;;;5019192;28;20038;-70
2023/07/22 05:18:40;;;;;;;18.90;9.07;;;14.50;99.90;;;;;;5009896;28;20046;-70
2023/07/22 05:21:06;;;;;;;14.63;8.50;;;14.50;99.90;;;;;;5010097;28;20066;-70
2023/07/22 05:23:31;;;;;;;16.92;8.73;;;14.40;99.90;;;;;;5009478;28;20435;-70
2023/07/22 05:25:57;;;;;;;16.02;8.27;;;14.50;99.90;;;;;;4994518;28;20037;-70
2023/07/22 05:28:23;;;;;;;19.75;9.15;;;14.50;99.90;;;;;;4992996;28;20030;-70
2023/07/22 05:30:48;;;;;;;17.27;8.82;;;14.40;99.90;;;;;;4991306;28;20508;-70
2023/07/22 05:33:14;;;;;;;17.05;9.52;;;14.40;99.90;;;;;;4992478;28;20049;-70
2023/07/22 05:35:39;;;;;;;18.20;9.75;;;14.40;99.90;;;;;;4994951;28;20039;-70
2023/07/22 05:38:05;;;;;;;16.95;9.35;;;14.40;99.90;;;;;;4995757;28;20030;-70
2023/07/22 05:40:31;;;;;;;17.58;9.50;;;14.40;99.90;;;;;;4990211;28;20045;-70
2023/07/22 05:42:57;;;;;;;19.88;9.60;;;14.30;99.90;;;;;;4986838;28;20547;-70
2023/07/22 05:45:23;;;;;;;18.17;9.38;;;14.30;99.90;;;;;;4995779;28;20077;-70
2023/07/22 05:47:48;;;;;;;17.17;9.05;;;14.30;99.90;;;;;;5001750;28;20050;-70
2023/07/22 05:50:14;;;;;;;17.55;9.63;;;14.40;99.90;;;;;;4991548;28;20427;-70
2023/07/22 05:52:39;;;;;;;16.30;9.68;;;14.40;99.90;;;;;;4986466;28;20130;-70
2023/07/22 05:55:05;;;;;;;16.15;9.32;;;14.40;99.90;;;;;;4992586;28;20153;-70
2023/07/22 05:57:31;;;;;;;20.50;10.00;;;14.50;99.90;;;;;;4994422;28;20042;-70
2023/07/22 05:59:56;;;;;;;19.17;10.27;;;14.50;99.90;;;;;;4984363;28;20408;-70
2023/07/22 06:02:22;;;;;;;19.38;10.10;;;14.50;99.90;;;;;;4987818;28;20042;-70
2023/07/22 06:04:48;;;;;;;20.85;10.63;;;14.50;99.90;;;;;;4988897;28;20113;-70
2023/07/22 06:07:13;;;;;;;19.38;10.43;;;14.60;99.90;;;;;;4987052;28;20037;-70
2023/07/22 06:09:39;;;;;;;19.73;10.90;;;14.60;99.90;;;;;;4989594;28;20034;-70
2023/07/22 06:12:05;;;;;;;23.20;11.10;;;14.60;99.90;;;;;;5001081;28;20121;-70
2023/07/22 06:14:31;;;;;;;18.50;10.45;;;14.60;99.90;;;;;;5002151;28;20038;-70
2023/07/22 06:16:57;;;;;;;23.30;11.80;;;14.60;99.90;;;;;;4988570;28;20041;-70
2023/07/22 06:19:23;;;;;;;22.38;11.38;;;14.70;99.90;;;;;;4988490;28;20038;-70
2023/07/22 06:21:49;;;;;;;22.15;11.85;;;14.70;99.90;;;;;;4991324;28;20100;-70
2023/07/22 06:24:15;;;;;;;22.80;11.85;;;14.80;99.90;;;;;;4996442;28;20443;-70
2023/07/22 06:26:41;;;;;;;21.42;11.88;;;14.80;99.90;;;;;;4992098;28;20030;-70
2023/07/22 06:29:06;;;;;;;23.10;11.88;;;14.80;99.90;;;;;;4990053;28;20035;-70
2023/07/22 06:31:32;;;;;;;25.02;12.32;;;14.90;99.90;;;;;;4990514;28;20105;-70
2023/07/22 06:33:59;;;;;;;26.20;14.00;;;14.90;99.90;;;;;;4990320;28;20038;-70
2023/07/22 06:36:25;;;;;;;26.75;13.55;;;15.00;99.90;;;;;;4997819;28;20060;-70
2023/07/22 06:38:51;;;;;;;25.27;13.70;;;15.00;99.90;;;;;;4989220;28;20041;-70
2023/07/22 06:41:17;;;;;;;24.88;13.13;;;14.90;99.90;;;;;;4989127;28;20637;-70
2023/07/22 06:43:43;;;;;;;26.38;13.43;;;15.00;99.90;;;;;;4998426;28;20048;-70
2023/07/22 06:46:08;;;;;;;28.63;13.95;;;15.00;99.90;;;;;;4997034;28;20038;-70
2023/07/22 06:48:34;;;;;;;25.58;13.38;;;15.00;99.90;;;;;;4992973;28;20042;-69
2023/07/22 06:51:00;;;;;;;25.65;13.38;;;15.00;99.90;;;;;;4994060;28;20429;-66
2023/07/22 06:53:25;;;;;;;29.05;14.27;;;15.00;99.90;;;;;;4998187;28;20439;-66
2023/07/22 06:55:52;;;;;;;29.08;13.52;;;15.10;99.90;;;;;;4995210;28;20069;-66
2023/07/22 06:58:22;;;;;;;30.83;15.60;;;15.10;99.90;;;;;;4993161;28;20109;-65
2023/07/22 07:00:52;;;;;;;31.48;15.60;;;15.10;99.90;;;;;;4995049;28;20161;-66
2023/07/22 07:03:17;;;;;;;27.45;14.65;;;15.20;99.90;;;;;;5001378;28;20038;-66
2023/07/22 07:05:43;;;;;;;29.92;14.95;;;15.30;99.90;;;;;;4992984;28;20038;-66
2023/07/22 07:08:11;;;;;;;30.27;14.68;;;15.40;99.90;;;;;;5002386;28;20444;-66
2023/07/22 07:10:41;;;;;;;29.65;14.20;;;15.50;99.90;;;;;;4991836;28;20033;-66
2023/07/22 07:13:09;;;;;;;27.77;15.80;;;15.50;99.90;;;;;;4994864;28;20034;-66
2023/07/22 07:15:34;;;;;;;33.00;15.25;;;15.60;99.90;;;;;;4995434;28;20201;-66
2023/07/22 07:18:00;;;;;;;29.00;14.85;;;15.60;99.90;;;;;;4994746;28;20104;-66
2023/07/22 07:20:25;;;;;;;27.83;14.93;;;15.70;99.90;;;;;;5014225;28;20042;-66
2023/07/22 07:22:51;;;;;;;26.13;14.13;;;15.80;99.90;;;;;;4999425;28;20046;-66
2023/07/22 07:25:16;;;;;;;33.17;16.75;;;15.90;99.90;;;;;;4995240;28;20041;-66
2023/07/22 07:27:42;;;;;;;27.00;14.88;;;16.00;99.90;;;;;;4997584;28;20038;-66
2023/07/22 07:30:09;;;;;;;26.40;14.48;;;16.00;99.90;;;;;;4991872;28;20050;-65
2023/07/22 07:32:35;;;;;;;27.13;15.68;;;16.10;99.90;;;;;;4990585;28;20088;-65
2023/07/22 07:35:00;;;;;;;27.63;15.13;;;16.10;99.90;;;;;;4994982;28;20117;-65
2023/07/22 07:37:26;;;;;;;25.80;13.77;;;16.20;99.90;;;;;;5000192;28;20046;-66
2023/07/22 07:39:52;;;;;;;26.77;14.48;;;16.30;99.90;;;;;;4990183;28;20424;-66
2023/07/22 07:42:18;;;;;;;26.67;14.15;;;16.30;99.90;;;;;;4991111;28;20226;-65
2023/07/22 07:44:44;;;;;;;27.27;14.05;;;16.30;99.90;;;;;;4993553;28;20062;-65
2023/07/22 07:47:09;;;;;;;27.58;15.25;;;16.40;99.90;;;;;;4991205;28;20124;-66
2023/07/22 07:49:35;;;;;;;26.05;13.88;;;16.40;99.90;;;;;;4989339;28;20031;-66
2023/07/22 07:52:01;;;;;;;25.20;13.35;;;16.40;99.90;;;;;;4990799;28;20038;-65
2023/07/22 07:54:27;;;;;;;22.85;12.82;;;16.50;99.90;;;;;;4989145;28;20124;-66
2023/07/22 07:56:52;;;;;;;27.63;13.60;;;16.60;99.90;;;;;;4989704;28;20056;-66
2023/07/22 07:59:18;;;;;;;24.80;13.07;;;16.60;99.90;;;;;;4988621;28;20097;-66
2023/07/22 08:01:43;;;;;;;21.92;11.63;;;16.80;99.90;;;;;;4987264;28;20039;-65
2023/07/22 08:04:09;;;;;;;22.50;12.73;;;16.90;99.90;;;;;;4990694;28;20030;-65
2023/07/22 08:06:36;;;;;;;20.92;11.77;;;17.10;99.90;;;;;;4990778;28;20045;-66
2023/07/22 08:09:02;;;;;;;25.20;13.85;;;17.10;99.90;;;;;;4991747;28;20041;-66
2023/07/22 08:11:28;;;;;;;18.33;11.75;;;17.20;99.90;;;;;;4988302;28;20084;-65
2023/07/22 08:13:55;;;;;;;21.95;11.93;;;17.20;99.90;;;;;;4988988;28;20050;-66
2023/07/22 08:16:20;;;;;;;19.13;11.55;;;17.30;99.90;;;;;;4993159;28;20052;-65
2023/07/22 08:18:47;;;;;;;19.92;11.73;;;17.30;99.90;;;;;;4989577;28;20117;-65
2023/07/22 08:21:12;;;;;;;22.35;12.20;;;17.30;99.90;;;;;;4986275;28;20054;-65
2023/07/22 08:23:38;;;;;;;18.27;11.15;;;17.30;99.90;;;;;;4990250;28;20101;-65
2023/07/22 08:26:05;;;;;;;20.63;11.43;;;17.40;99.90;;;;;;4992854;28;20038;-65
2023/07/22 08:28:32;;;;;;;19.30;11.27;;;17.50;99.90;;;;;;4998964;28;20328;-65
2023/07/22 08:30:58;;;;;;;17.20;10.70;;;17.40;99.90;;;;;;4992256;28;20042;-65
2023/07/22 08:33:24;;;;;;;15.55;9.75;;;17.40;99.90;;;;;;4991056;28;20038;-65
2023/07/22 08:35:51;;;;;;;19.75;11.15;;;17.50;99.90;;;;;;4988896;28;20443;-65
2023/07/22 08:38:25;;;;;;;21.23;11.65;;;17.60;99.90;;;;;;4997595;28;20038;-65
2023/07/22 08:40:51;;;;;;;16.77;9.73;;;17.70;99.90;;;;;;5004710;28;20037;-65
2023/07/22 08:43:20;;;;;;;16.77;10.18;;;17.80;99.90;;;;;;4990953;28;20445;-65
2023/07/22 08:45:47;;;;;;;19.02;10.70;;;17.80;99.90;;;;;;5001298;28;20045;-65
2023/07/22 08:48:18;;;;;;;19.77;10.77;;;17.90;99.90;;;;;;4994018;28;20080;-65
2023/07/22 08:51:09;;;;;;;17.40;10.18;;;18.10;99.90;;;;;;4992834;28;20558;-65
2023/07/22 08:53:36;;;;;;;16.50;10.38;;;18.50;99.90;;;;;;4976543;28;20084;-64
2023/07/22 08:56:02;;;;;;;14.90;9.43;;;18.80;99.90;;;;;;4993055;28;20530;-65
2023/07/22 08:58:29;;;;;;;16.73;10.07;;;18.90;99.90;;;;;;4996329;28;20069;-64
2023/07/22 09:00:55;;;;;;;15.63;8.85;;;19.00;99.90;;;;;;4991457;28;20039;-63
2023/07/22 09:03:21;;;;;;;14.43;8.77;;;19.00;99.90;;;;;;4990230;28;20034;-64
2023/07/22 09:05:48;;;;;;;15.45;8.90;;;18.90;99.90;;;;;;4988516;28;20125;-64
2023/07/22 09:08:13;;;;;;;20.00;9.18;;;18.80;99.90;;;;;;4988288;28;20027;-64
2023/07/22 09:10:39;;;;;;;17.50;9.02;;;18.80;99.90;;;;;;4990178;28;20046;-64
2023/07/22 09:13:05;;;;;;;14.45;8.77;;;18.80;99.90;;;;;;4990904;28;20042;-64
2023/07/22 09:15:37;;;;;;;14.82;9.82;;;18.70;99.90;;;;;;4988137;28;20408;-65
2023/07/22 09:18:04;;;;;;;17.83;9.10;;;18.70;99.90;;;;;;4991452;28;20038;-65
2023/07/22 09:20:29;;;;;;;16.45;9.15;;;18.60;99.90;;;;;;4991099;28;20404;-65
2023/07/22 09:22:55;;;;;;;14.05;8.90;;;18.70;99.90;;;;;;4990973;28;20042;-65
2023/07/22 09:25:23;;;;;;;13.88;8.77;;;18.60;99.90;;;;;;4989612;28;20046;-65
2023/07/22 09:27:51;;;;;;;13.80;8.00;;;18.50;99.90;;;;;;4993277;28;20034;-65
2023/07/22 09:30:31;;;;;;;11.02;6.90;;;18.40;99.90;;;;;;5002259;28;20084;-65
2023/07/22 09:33:01;;;;;;;10.55;6.13;;;18.20;99.90;;;;;;4986817;28;20113;-66
2023/07/22 09:35:46;;;;;;;14.73;7.43;;;18.00;99.90;;;;;;4983230;28;20046;-69
2023/07/22 09:38:13;;;;;;;15.40;8.15;;;17.80;99.90;;;;;;4994989;28;20125;-69
2023/07/22 09:40:42;;;;;;;17.63;9.10;;;17.70;99.90;;;;;;5004851;28;20050;-69
2023/07/22 09:43:12;;;;;;;15.20;8.18;;;17.60;99.90;;;;;;4990168;28;20042;-69
2023/07/22 09:45:37;;;;;;;15.20;9.02;;;17.50;99.90;;;;;;4990733;28;20049;-70
2023/07/22 09:48:04;;;;;;;14.27;7.93;;;17.40;99.90;;;;;;4991057;28;20035;-70
2023/07/22 09:50:29;;;;;;;18.30;8.32;;;17.40;99.90;;;;;;4996375;28;20492;-67
2023/07/22 09:52:57;;;;;;;13.50;8.48;;;17.20;99.90;;;;;;4995801;28;20042;-68
2023/07/22 09:55:25;;;;;;;11.82;7.35;;;16.90;99.90;;;;;;4990724;28;20088;-69
2023/07/22 09:57:59;;;;;;;8.80;5.35;;;16.80;99.90;;;;;;4991061;28;20050;-69
2023/07/22 10:00:29;;;;;;;9.18;5.78;;;16.60;99.90;;;;;;4994144;28;20205;-69
2023/07/22 10:02:57;;;;;;;11.60;6.40;;;16.40;99.90;;;;;;4994436;28;20038;-68
2023/07/22 10:05:25;;;;;;;8.38;5.70;;;16.30;99.90;;;;;;4991152;28;20092;-69
2023/07/22 10:07:52;;;;;;;11.65;5.80;;;16.20;99.90;;;;;;4989426;28;20026;-69
2023/07/22 10:10:20;;;;;;;13.48;6.20;;;16.30;99.90;;;;;;4990249;28;20152;-68
2023/07/22 10:12:47;;;;;;;10.63;6.65;;;16.30;99.90;;;;;;4994514;28;20566;-68
2023/07/22 10:15:19;;;;;;;12.00;6.25;;;16.40;99.90;;;;;;4989318;28;20038;-68
2023/07/22 10:17:45;;;;;;;8.35;5.82;;;16.50;99.90;;;;;;4990045;28;20034;-68
2023/07/22 10:20:19;;;;;;;9.70;5.78;;;16.60;99.90;;;;;;4996347;28;20516;-68
2023/07/22 10:22:46;;;;;;;11.18;6.47;;;16.60;99.90;;;;;;4998106;28;20030;-68
2023/07/22 10:25:17;;;;;;;11.45;6.28;;;16.70;99.90;;;;;;4994450;28;20048;-68
2023/07/22 10:27:43;;;;;;;11.80;6.45;;;16.80;99.90;;;;;;4995698;28;20074;-68
2023/07/22 10:30:11;;;;;;;10.48;6.50;;;16.80;99.90;;;;;;4993282;28;20096;-68
2023/07/22 10:32:42;;;;;;;8.30;6.03;;;16.90;99.90;;;;;;4995551;28;20042;-68
2023/07/22 10:35:12;;;;;;;10.35;5.80;;;16.90;99.90;;;;;;4993883;28;20045;-68
2023/07/22 10:37:41;;;;;;;10.50;6.40;;;17.00;99.90;;;;;;4990425;28;20293;-68
2023/07/22 10:40:29;;;;;;;8.23;6.13;;;17.10;99.90;;;;;;5001745;28;20038;-68
2023/07/22 10:43:05;;;;;;;10.68;6.32;;;17.20;99.90;;;;;;4994900;28;20043;-68
2023/07/22 10:45:32;;;;;;;12.15;7.38;;;17.20;99.90;;;;;;4995283;28;20034;-68
2023/07/22 10:48:14;;;;;;;13.88;7.88;;;17.20;99.90;;;;;;4993156;28;20068;-68
2023/07/22 10:50:46;;;;;;;11.10;7.40;;;17.20;99.90;;;;;;4990996;28;20049;-68
2023/07/22 10:53:43;;;;;;;11.20;7.47;;;17.20;99.90;;;;;;4992802;28;20057;-68
2023/07/22 10:56:24;;;;;;;12.43;8.10;;;17.30;99.90;;;;;;4983476;28;20065;-68
2023/07/22 10:58:49;;;;;;;;;;;17.30;99.90;;;;;;4993881;28;20053;-68
2023/07/22 11:01:30;;;;;;;11.57;7.90;;;17.30;99.90;;;;;;4991623;28;19917;-68
2023/07/22 11:04:17;;;;;;;13.70;8.85;;;17.20;99.90;;;;;;4993329;28;20046;-68
2023/07/22 11:06:46;;;;;;;14.13;8.88;;;17.20;99.90;;;;;;4995183;28;20045;-68
2023/07/22 11:09:30;;;;;;;15.55;9.70;;;17.20;99.90;;;;;;5008805;28;20034;-68
2023/07/22 11:12:06;;;;;;;16.30;9.70;;;17.20;99.90;;;;;;5010567;28;20042;-68
2023/07/22 11:14:44;;;;;;;13.13;9.07;;;17.20;99.90;;;;;;5029268;23;20064;-63
2023/07/22 11:17:11;;;;;;;15.02;9.65;;;17.20;99.90;;;;;;5031146;28;20451;-63
2023/07/22 11:19:37;;;;;;;19.20;10.73;;;17.20;99.90;;;;;;5027096;28;20057;-63
2023/07/22 11:22:03;;;;;;;17.45;10.52;;;17.20;99.90;;;;;;5030991;28;20049;-63
2023/07/22 11:24:29;;;;;;;17.17;10.50;;;17.10;99.90;;;;;;5033020;28;20487;-63
2023/07/22 11:26:55;;;;;;;17.30;9.70;;;17.10;99.90;;;;;;5032889;28;20040;-63
2023/07/22 11:29:21;;;;;;;19.10;11.10;;;17.00;99.90;;;;;;5032968;28;20481;-63
2023/07/22 11:31:49;;;;;;;14.00;10.13;;;17.20;99.90;;;;;;5033459;28;20121;-64
2023/07/22 11:34:16;;;;;;;14.95;9.82;;;17.10;99.90;;;;;;5032591;28;20041;-63
2023/07/22 11:36:43;;;;;;;16.10;10.23;;;17.00;99.90;;;;;;5031196;28;20091;-64
2023/07/22 11:39:12;;;;;;;12.57;8.48;;;17.00;99.90;;;;;;5033734;28;20072;-63
2023/07/22 11:41:38;;;;;;;11.75;6.95;;;16.90;99.90;;;;;;5032542;28;20040;-63
2023/07/22 11:44:08;;;;;;;11.70;7.82;;;16.80;99.90;;;;;;5032604;28;20100;-63
2023/07/22 11:46:35;;;;;;;9.15;7.43;;;16.70;99.90;;;;;;5033533;28;20079;-63
2023/07/22 11:49:00;;;;;;;11.02;7.85;;;16.60;99.90;;;;;;5032629;28;20037;-63
2023/07/22 11:51:26;;;;;;;11.40;8.23;;;16.50;99.90;;;;;;5032244;28;20044;-63
2023/07/22 11:53:53;;;;;;;14.43;8.68;;;16.50;99.90;;;;;;5030711;28;20037;-63
2023/07/22 11:56:27;;;;;;;11.65;8.60;;;16.50;99.90;;;;;;5031054;28;20427;-63
2023/07/22 11:58:56;;;;;;;12.50;8.32;;;16.60;99.90;;;;;;5032268;28;20033;-63
2023/07/22 12:01:22;;;;;;;13.73;8.70;;;16.60;99.90;;;;;;5029579;28;20037;-63
2023/07/22 12:03:49;;;;;;;13.43;8.75;;;16.60;99.90;;;;;;5030007;28;20049;-63
2023/07/22 12:06:15;;;;;;;17.67;8.75;;;16.60;99.90;;;;;;5028653;28;20043;-63
2023/07/22 12:08:48;;;;;;;11.85;8.60;;;16.50;99.90;;;;;;5030726;28;20455;-63
2023/07/22 12:11:24;;;;;;;12.65;8.85;;;16.50;99.90;;;;;;5028917;28;20034;-63
2023/07/22 12:14:08;;;;;;;11.52;8.90;;;16.70;99.90;;;;;;5030808;28;20049;-63
2023/07/22 12:16:36;;;;;;;12.65;8.27;;;16.60;99.90;;;;;;5026531;28;20049;-62
2023/07/22 12:19:02;;;;;;;11.98;8.02;;;16.60;99.90;;;;;;5031902;28;20049;-63
2023/07/22 12:21:28;;;;;;;10.88;8.45;;;16.60;99.90;;;;;;5019509;28;20373;-63
2023/07/22 12:23:54;;;;;;;10.82;8.32;;;16.60;99.90;;;;;;5029480;28;20041;-63
2023/07/22 12:26:20;;;;;;;11.93;7.63;;;16.70;99.90;;;;;;5027362;28;20084;-63
2023/07/22 12:28:46;;;;;;;11.50;8.55;;;16.70;99.90;;;;;;5028744;28;20029;-62
2023/07/22 12:31:12;;;;;;;12.27;8.18;;;16.70;99.90;;;;;;5030185;28;20526;-62
2023/07/22 12:33:38;;;;;;;10.88;8.20;;;16.60;99.90;;;;;;5029899;28;20068;-62
2023/07/22 12:36:04;;;;;;;12.20;8.48;;;16.50;99.90;;;;;;5029759;28;20073;-62